createdAt,value
2022-08-17T00:01:52.823Z,23.52
2022-08-17T00:10:11.232Z,29.77
2022-08-17T00:14:16.891Z,27.40
2022-08-17T00:19:06.203Z,26.80
2022-08-17T00:22:42.613Z,24.10
2022-08-17T00:26:45.809Z,23.90
2022-08-17T00:30:52.946Z,25.65
2022-08-17T00:34:56.412Z,33.25
2022-08-17T00:38:58.614Z,26.42
2022-08-17T00:43:13.785Z,23.50
2022-08-17T00:47:15.907Z,23.88
2022-08-17T00:51:33.637Z,23.67
2022-08-17T00:55:35.959Z,24.95
2022-08-17T00:59:42.947Z,29.35
2022-08-17T01:03:45.238Z,26.20
2022-08-17T01:07:51.100Z,24.02
2022-08-17T01:11:53.210Z,26.15
2022-08-17T01:16:01.896Z,28.15
2022-08-17T01:20:04.887Z,28.98
2022-08-17T01:24:07.892Z,30.02
2022-08-17T01:28:10.197Z,33.58
2022-08-17T01:32:33.051Z,25.80
2022-08-17T01:36:37.494Z,27.95
2022-08-17T01:40:47.194Z,33.30
2022-08-17T01:45:11.714Z,29.60
2022-08-17T01:49:13.918Z,28.73
2022-08-17T01:53:20.959Z,28.98
2022-08-17T01:57:23.110Z,29.83
2022-08-17T02:01:29.069Z,29.67
2022-08-17T02:05:31.971Z,28.77
2022-08-17T02:09:34.125Z,30.33
2022-08-17T02:13:38.070Z,36.00
2022-08-17T02:17:43.297Z,29.88
2022-08-17T02:21:47.847Z,30.27
2022-08-17T02:25:50.319Z,27.45
2022-08-17T02:29:52.586Z,26.48
2022-08-17T02:33:56.571Z,25.08
2022-08-17T02:38:05.707Z,26.85
2022-08-17T02:42:07.835Z,27.20
2022-08-17T02:46:10.161Z,24.38
2022-08-17T02:50:16.405Z,24.45
2022-08-17T02:54:40.717Z,25.02
2022-08-17T02:58:41.063Z,25.20
2022-08-17T03:02:45.939Z,32.72
2022-08-17T03:06:48.270Z,30.20
2022-08-17T03:10:50.830Z,28.42
2022-08-17T03:14:53.410Z,24.15
2022-08-17T03:18:55.733Z,29.40
2022-08-17T03:23:01.986Z,25.52
2022-08-17T03:27:05.454Z,35.58
2022-08-17T03:31:08.009Z,29.85
2022-08-17T03:35:12.674Z,24.98
2022-08-17T03:39:14.995Z,27.55
2022-08-17T03:43:18.806Z,36.08
2022-08-17T03:47:40.352Z,32.92
2022-08-17T03:52:22.530Z,29.25
2022-08-17T03:56:42.938Z,22.75
2022-08-17T04:00:46.350Z,26.15
2022-08-17T04:04:51.398Z,27.10
2022-08-17T04:08:53.928Z,26.80
2022-08-17T04:12:58.315Z,38.15
2022-08-17T04:17:00.495Z,23.95
2022-08-17T04:21:02.542Z,26.25
2022-08-17T04:25:17.160Z,41.75
2022-08-17T04:29:20.060Z,30.23
2022-08-17T04:33:25.169Z,23.88
2022-08-17T04:37:27.220Z,23.73
2022-08-17T04:41:47.974Z,25.98
2022-08-17T04:46:12.542Z,25.92
2022-08-17T04:50:15.126Z,27.70
2022-08-17T04:54:20.652Z,26.50
2022-08-17T04:58:23.002Z,29.92
2022-08-17T05:02:25.005Z,28.48
2022-08-17T05:06:28.888Z,30.92
2022-08-17T05:10:37.233Z,27.95
2022-08-17T05:14:48.393Z,23.67
2022-08-17T05:18:51.085Z,21.08
2022-08-17T05:22:56.145Z,22.98
2022-08-17T05:27:02.584Z,22.20
2022-08-17T05:31:08.823Z,21.40
2022-08-17T05:35:11.074Z,20.23
2022-08-17T05:39:17.037Z,21.83
2022-08-17T05:43:25.785Z,21.90
2022-08-17T05:47:28.730Z,22.45
2022-08-17T05:51:30.719Z,20.48
2022-08-17T05:55:48.499Z,22.42
2022-08-17T06:00:07.947Z,19.55
2022-08-17T06:04:53.696Z,16.67
2022-08-17T06:09:26.627Z,19.23
2022-08-17T06:13:50.475Z,16.25
2022-08-17T06:17:58.166Z,16.02
2022-08-17T06:22:02.906Z,15.93
2022-08-17T06:26:14.466Z,17.23
2022-08-17T06:30:25.626Z,16.40
2022-08-17T06:34:28.466Z,19.50
2022-08-17T06:38:57.593Z,19.08
2022-08-17T06:43:07.207Z,13.63
2022-08-17T06:47:28.121Z,13.00
2022-08-17T06:51:46.485Z,16.73
2022-08-17T06:55:59.066Z,12.07
2022-08-17T07:00:12.821Z,21.73
2022-08-17T07:04:23.325Z,14.02
2022-08-17T07:08:53.168Z,16.48
2022-08-17T07:13:03.424Z,14.00
2022-08-17T07:17:13.552Z,18.67
2022-08-17T07:21:40.910Z,15.45
2022-08-17T07:25:43.112Z,15.52
2022-08-17T07:29:48.163Z,11.07
2022-08-17T07:34:14.774Z,17.73
2022-08-17T07:38:26.832Z,13.60
2022-08-17T07:42:30.590Z,15.32
2022-08-17T07:47:05.441Z,15.57
2022-08-17T07:51:20.649Z,22.92
2022-08-17T07:55:35.094Z,15.35
2022-08-17T07:59:43.769Z,16.27
2022-08-17T08:03:46.475Z,14.40
2022-08-17T08:07:58.732Z,12.27
2022-08-17T08:12:33.456Z,11.65
2022-08-17T08:16:36.977Z,10.55
2022-08-17T08:20:54.554Z,14.77
2022-08-17T08:25:03.665Z,12.48
2022-08-17T08:29:39.866Z,11.90
2022-08-17T08:33:56.329Z,12.90
2022-08-17T08:38:20.120Z,10.95
2022-08-17T08:42:37.736Z,13.40
2022-08-17T08:46:46.003Z,12.40
2022-08-17T08:50:54.596Z,12.80
2022-08-17T08:55:07.746Z,15.98
2022-08-17T08:59:57.707Z,13.10
2022-08-17T09:04:19.992Z,13.43
2022-08-17T09:08:25.547Z,14.27
2022-08-17T09:12:47.776Z,16.73
2022-08-17T09:17:04.639Z,10.48
2022-08-17T09:21:33.813Z,12.95
2022-08-17T09:25:49.961Z,16.52
2022-08-17T09:29:59.046Z,15.75
2022-08-17T09:34:06.283Z,11.90
2022-08-17T09:38:32.398Z,22.63
2022-08-17T09:43:16.262Z,12.43
2022-08-17T09:47:42.231Z,26.08
2022-08-17T09:52:11.153Z,16.13
2022-08-17T09:56:45.973Z,13.45
2022-08-17T10:01:08.183Z,12.30
2022-08-17T10:05:28.895Z,12.30
2022-08-17T10:09:58.193Z,12.25
2022-08-17T10:14:36.703Z,11.82
2022-08-17T10:18:46.081Z,16.52
2022-08-17T10:23:29.493Z,9.98
2022-08-17T10:27:54.817Z,14.23
2022-08-17T10:32:04.730Z,12.98
2022-08-17T10:36:29.290Z,10.05
2022-08-17T10:40:51.660Z,13.50
2022-08-17T10:45:15.547Z,13.82
2022-08-17T10:49:17.818Z,17.17
2022-08-17T10:53:31.697Z,15.18
2022-08-17T10:57:43.803Z,14.25
2022-08-17T11:01:58.370Z,15.18
2022-08-17T11:06:09.887Z,11.93
2022-08-17T11:10:30.815Z,18.23
2022-08-17T11:15:00.988Z,10.65
2022-08-17T11:19:51.447Z,13.00
2022-08-17T11:23:59.515Z,12.10
2022-08-17T11:28:09.408Z,11.55
2022-08-17T11:32:27.978Z,16.27
2022-08-17T11:36:52.082Z,10.82
2022-08-17T11:41:11.874Z,9.82
2022-08-17T11:45:36.009Z,12.38
2022-08-17T11:50:07.250Z,8.85
2022-08-17T11:54:33.878Z,11.65
2022-08-17T11:58:45.424Z,15.52
2022-08-17T12:02:48.891Z,16.17
2022-08-17T12:07:20.825Z,11.23
2022-08-17T12:12:10.951Z,10.70
2022-08-17T12:15:56.617Z,9.85
2022-08-17T12:20:15.669Z,13.50
2022-08-17T12:24:37.358Z,12.48
2022-08-17T12:28:45.534Z,9.48
2022-08-17T12:32:48.597Z,12.80
2022-08-17T12:36:52.024Z,10.15
2022-08-17T12:40:57.990Z,13.10
2022-08-17T12:45:01.340Z,10.25
2022-08-17T12:49:26.479Z,14.68
2022-08-17T12:53:32.459Z,13.32
2022-08-17T12:57:52.052Z,9.50
2022-08-17T13:01:54.521Z,12.73
2022-08-17T13:06:03.674Z,9.60
2022-08-17T13:10:06.050Z,12.00
2022-08-17T13:14:10.103Z,10.77
2022-08-17T13:18:41.015Z,14.77
2022-08-17T13:22:44.686Z,13.90
2022-08-17T13:27:01.754Z,11.25
2022-08-17T13:31:28.213Z,8.07
2022-08-17T13:35:49.947Z,8.95
2022-08-17T13:40:21.487Z,11.75
2022-08-17T13:44:39.284Z,11.05
2022-08-17T13:48:41.602Z,12.80
2022-08-17T13:52:48.803Z,11.23
2022-08-17T13:57:02.121Z,11.05
2022-08-17T14:01:43.558Z,9.73
2022-08-17T14:05:47.333Z,13.70
2022-08-17T14:09:55.352Z,13.57
2022-08-17T14:18:00.925Z,16.02
2022-08-17T14:22:07.132Z,16.98
2022-08-17T14:26:09.312Z,13.52
2022-08-17T14:30:11.935Z,13.77
2022-08-17T14:34:14.438Z,10.02
2022-08-17T14:38:17.467Z,13.98
2022-08-17T14:42:20.636Z,11.95
2022-08-17T14:46:22.931Z,15.18
2022-08-17T14:50:24.980Z,12.10
2022-08-17T14:54:34.125Z,32.90
2022-08-17T14:58:36.760Z,18.20
2022-08-17T15:02:53.897Z,12.30
2022-08-17T15:06:55.960Z,16.83
2022-08-17T15:10:58.171Z,11.18
2022-08-17T15:15:01.160Z,14.73
2022-08-17T15:19:07.839Z,9.60
2022-08-17T15:23:18.865Z,9.23
2022-08-17T15:27:25.741Z,15.48
2022-08-17T15:31:34.765Z,11.98
2022-08-17T15:35:37.560Z,15.25
2022-08-17T15:39:39.639Z,11.23
2022-08-17T15:43:44.706Z,10.75
2022-08-17T15:47:46.799Z,14.23
2022-08-17T15:51:49.041Z,12.95
2022-08-17T15:55:51.048Z,11.93
2022-08-17T15:59:59.298Z,15.98
2022-08-17T16:04:06.553Z,15.10
2022-08-17T16:08:11.406Z,15.68
2022-08-17T16:12:19.571Z,17.52
2022-08-17T16:20:26.774Z,12.35
2022-08-17T16:24:29.223Z,18.80
2022-08-17T16:28:35.844Z,16.45
2022-08-17T16:32:39.188Z,16.40
2022-08-17T16:36:41.783Z,15.90
2022-08-17T16:40:58.225Z,11.77
2022-08-17T16:45:08.909Z,14.00
2022-08-17T16:49:35.658Z,20.77
2022-08-17T16:53:37.583Z,17.40
2022-08-17T16:57:47.301Z,20.17
2022-08-17T17:01:52.825Z,13.73
2022-08-17T17:06:18.860Z,14.38
2022-08-17T17:10:28.859Z,14.40
2022-08-17T17:14:43.214Z,18.80
2022-08-17T17:19:12.625Z,17.85
2022-08-17T17:23:35.297Z,17.02
2022-08-17T17:27:47.830Z,14.90
2022-08-17T17:32:21.118Z,17.75
2022-08-17T17:36:29.529Z,15.52
2022-08-17T17:44:56.666Z,15.50
2022-08-17T17:49:00.229Z,15.13
2022-08-17T17:53:09.473Z,16.92
2022-08-17T17:57:29.878Z,17.65
2022-08-17T18:01:48.793Z,20.55
2022-08-17T18:06:28.892Z,22.52
2022-08-17T18:11:00.231Z,18.77
2022-08-17T18:15:25.694Z,21.15
2022-08-17T18:19:31.628Z,22.15
2022-08-17T18:23:34.590Z,18.67
2022-08-17T18:27:39.944Z,23.13
2022-08-17T18:31:42.370Z,21.67
2022-08-17T18:35:59.327Z,19.67
2022-08-17T18:40:19.898Z,22.83
2022-08-17T18:44:26.840Z,23.60
2022-08-17T18:48:58.981Z,23.95
2022-08-17T18:53:30.233Z,21.98
2022-08-17T18:57:48.499Z,21.25
2022-08-17T19:01:58.867Z,19.42
2022-08-17T19:06:36.891Z,23.80
2022-08-17T19:10:46.392Z,24.80
2022-08-17T19:14:52.780Z,24.65
2022-08-17T19:19:14.735Z,24.55
2022-08-17T19:23:32.342Z,23.48
2022-08-17T19:27:46.431Z,28.92
2022-08-17T19:31:55.447Z,22.73
2022-08-17T19:36:09.951Z,29.05
2022-08-17T19:40:53.285Z,23.63
2022-08-17T19:45:03.586Z,23.85
2022-08-17T19:49:16.051Z,22.90
2022-08-17T19:53:42.000Z,29.27
2022-08-17T19:57:58.342Z,25.25
2022-08-17T20:02:09.185Z,31.27
2022-08-17T20:06:13.861Z,24.58
2022-08-17T20:10:54.527Z,26.45
2022-08-17T20:15:18.367Z,23.45
2022-08-17T20:19:36.309Z,22.55
2022-08-17T20:23:50.332Z,25.75
2022-08-17T20:28:27.983Z,28.70
2022-08-17T20:32:45.206Z,24.42
2022-08-17T20:37:09.019Z,28.13
2022-08-17T20:41:16.295Z,28.75
2022-08-17T20:45:21.413Z,25.30
2022-08-17T20:49:39.883Z,24.88
2022-08-17T20:54:06.634Z,27.80
2022-08-17T20:58:15.118Z,25.25
2022-08-17T21:02:22.202Z,31.95
2022-08-17T21:06:25.484Z,28.77
2022-08-17T21:10:27.654Z,29.70
2022-08-17T21:14:56.284Z,25.77
2022-08-17T21:19:22.664Z,30.55
2022-08-17T21:23:58.506Z,23.42
2022-08-17T21:29:00.218Z,24.90
2022-08-17T21:33:18.951Z,27.33
2022-08-17T21:37:24.819Z,34.97
2022-08-17T21:41:32.122Z,29.02
2022-08-17T21:45:42.648Z,25.85
2022-08-17T21:49:45.049Z,25.08
2022-08-17T21:53:58.157Z,30.48
2022-08-17T21:58:14.873Z,34.75
2022-08-17T22:02:24.925Z,28.50
2022-08-17T22:06:37.200Z,28.15
2022-08-17T22:10:43.795Z,28.50
2022-08-17T22:15:06.267Z,33.40
2022-08-17T22:19:09.190Z,32.35
2022-08-17T22:23:32.837Z,32.63
2022-08-17T22:27:55.969Z,28.77
2022-08-17T22:31:58.389Z,26.50
2022-08-17T22:36:22.858Z,30.30
2022-08-17T22:40:30.637Z,32.53
2022-08-17T22:44:44.971Z,33.38
2022-08-17T22:48:52.614Z,31.52
2022-08-17T22:53:21.212Z,24.55
2022-08-17T22:57:42.765Z,26.30
2022-08-17T23:02:06.396Z,32.05
2022-08-17T23:06:11.319Z,34.60
2022-08-17T23:10:14.808Z,25.20
2022-08-17T23:14:20.122Z,28.42
2022-08-17T23:18:23.623Z,27.02
2022-08-17T23:22:26.029Z,28.95
2022-08-17T23:26:30.730Z,36.10
2022-08-17T23:30:36.950Z,30.70
2022-08-17T23:34:41.108Z,29.48
2022-08-17T23:38:44.875Z,36.20
2022-08-17T23:42:47.362Z,25.75
2022-08-17T23:46:51.412Z,27.00
2022-08-17T23:50:57.490Z,26.35
2022-08-17T23:55:07.309Z,33.88
2022-08-17T23:59:09.588Z,30.05
